Time;durP1;ratioP1;P1;durP2;ratioP2;P2;SDS_P1;SDS_P2;PMS_P1;PMS_P2;Temp;Humidity;BMP_temperature;BMP_pressure;BME280_temperature;BME280_humidity;BME280_pressure;Samples;Min_cycle;Max_cycle;Signal;HPM_P1;HPM_P2
2021/09/13 00:00:14;;;;;;;;;;;15.50;99.90;;;;;;5009093;28;20091;-78
2021/09/13 00:02:40;;;;;;;2.83;1.08;;;15.40;99.90;;;;;;5039832;28;19918;-76
2021/09/13 00:05:06;;;;;;;;;;;15.40;99.90;;;;;;4991403;28;20093;-77
2021/09/13 00:07:31;;;;;;;3.33;1.25;;;15.40;99.90;;;;;;5000497;28;19917;-76
2021/09/13 00:09:57;;;;;;;1.75;0.70;;;15.40;99.90;;;;;;5010953;28;20038;-78
2021/09/13 00:12:23;;;;;;;2.05;1.15;;;15.40;99.90;;;;;;5010851;28;20542;-76
2021/09/13 00:14:49;;;;;;;;;;;15.40;99.90;;;;;;5012909;28;20045;-77
2021/09/13 00:17:14;;;;;;;1.15;0.98;;;15.50;99.90;;;;;;4994482;28;19922;-77
2021/09/13 00:19:40;;;;;;;0.95;0.90;;;15.40;99.90;;;;;;5010804;28;20377;-78
2021/09/13 00:22:06;;;;;;;0.63;0.63;;;15.50;99.90;;;;;;4994476;28;20103;-78
2021/09/13 00:24:32;;;;;;;;;;;15.40;99.90;;;;;;5011597;28;20057;-76
2021/09/13 00:26:57;;;;;;;0.90;0.70;;;15.40;99.90;;;;;;4994065;28;19960;-76
2021/09/13 00:29:23;;;;;;;;;;;15.40;99.90;;;;;;5011919;28;20522;-77
2021/09/13 00:31:49;;;;;;;1.25;1.00;;;15.40;99.90;;;;;;5010122;28;19964;-76
2021/09/13 00:34:14;;;;;;;;;;;15.40;99.90;;;;;;5010273;28;20050;-77
2021/09/13 00:36:40;;;;;;;5.13;1.13;;;15.40;99.90;;;;;;5010139;28;19917;-76
2021/09/13 00:39:06;;;;;;;1.55;0.93;;;15.40;99.90;;;;;;5009858;28;20052;-75
2021/09/13 00:41:31;;;;;;;;;;;15.40;99.90;;;;;;4994193;28;20045;-77
2021/09/13 00:43:58;;;;;;;1.05;0.75;;;15.40;99.90;;;;;;5042784;28;19979;-76
2021/09/13 00:46:24;;;;;;;0.80;0.80;;;15.40;99.90;;;;;;4993982;28;20114;-77
2021/09/13 00:48:50;;;;;;;5.93;1.80;;;15.40;99.90;;;;;;4976898;28;20124;-77
2021/09/13 00:51:15;;;;;;;;;;;15.40;99.90;;;;;;4996994;28;20041;-77
2021/09/13 00:53:41;;;;;;;0.75;0.63;;;15.40;99.90;;;;;;5012401;28;19925;-76
2021/09/13 00:56:07;;;;;;;;;;;15.40;99.90;;;;;;4990820;28;20515;-79
2021/09/13 00:58:34;;;;;;;1.27;0.95;;;15.40;99.90;;;;;;4994144;28;19921;-76
2021/09/13 01:01:00;;;;;;;1.13;0.90;;;15.40;99.90;;;;;;5009872;28;20038;-75
2021/09/13 01:03:26;;;;;;;;;;;15.40;99.90;;;;;;5010031;28;20050;-79
2021/09/13 01:05:52;;;;;;;0.68;0.68;;;15.40;99.90;;;;;;4993867;28;19927;-77
2021/09/13 01:08:18;;;;;;;;;;;15.30;99.90;;;;;;4994593;28;20041;-77
2021/09/13 01:10:45;;;;;;;1.15;0.73;;;15.30;99.90;;;;;;4993883;28;20343;-80
2021/09/13 01:13:11;;;;;;;2.78;1.00;;;15.30;99.90;;;;;;5009463;28;20454;-77
2021/09/13 01:15:40;;;;;;;0.70;0.70;;;15.30;99.90;;;;;;5012074;28;20137;-80
2021/09/13 01:18:06;;;;;;;2.50;1.15;;;15.30;99.90;;;;;;5010231;28;20438;-78
2021/09/13 01:20:33;;;;;;;0.70;0.70;;;15.20;99.90;;;;;;5012885;28;20261;-76
2021/09/13 01:23:05;;;;;;;1.95;1.13;;;15.20;99.90;;;;;;5012258;28;20042;-77
2021/09/13 01:25:32;;;;;;;0.82;0.80;;;15.10;99.90;;;;;;5012472;28;20468;-77
2021/09/13 01:27:58;;;;;;;4.90;0.90;;;15.10;99.90;;;;;;5011714;28;20392;-76
2021/09/13 01:30:24;;;;;;;1.83;1.10;;;15.10;99.90;;;;;;4996532;28;20038;-77
2021/09/13 01:32:49;;;;;;;;;;;15.10;99.90;;;;;;5010154;28;20057;-76
2021/09/13 01:35:15;;;;;;;1.00;0.82;;;15.00;99.90;;;;;;5034092;28;19944;-78
2021/09/13 01:37:41;;;;;;;;;;;15.00;99.90;;;;;;5010212;28;20488;-76
2021/09/13 01:40:07;;;;;;;0.80;0.70;;;15.10;99.90;;;;;;5042936;28;19922;-78
2021/09/13 01:42:32;;;;;;;3.80;1.10;;;15.10;99.90;;;;;;4994472;28;20049;-76
2021/09/13 01:44:58;;;;;;;1.85;0.98;;;15.10;99.90;;;;;;5013432;28;20064;-79
2021/09/13 01:47:24;;;;;;;;;;;15.10;99.90;;;;;;4997554;28;20093;-77
2021/09/13 01:49:49;;;;;;;2.40;0.85;;;15.00;99.90;;;;;;5046760;28;20055;-76
2021/09/13 01:52:15;;;;;;;1.73;1.08;;;15.00;99.90;;;;;;4996844;28;20048;-76
2021/09/13 01:54:41;;;;;;;;;;;15.00;99.90;;;;;;5014156;28;20046;-77
2021/09/13 01:57:06;;;;;;;8.38;1.17;;;14.90;99.90;;;;;;4979392;28;19918;-79
2021/09/13 01:59:32;;;;;;;1.60;1.08;;;14.90;99.90;;;;;;5014083;28;20054;-76
2021/09/13 02:01:58;;;;;;;;;;;14.90;99.90;;;;;;4996636;28;20042;-76
2021/09/13 02:04:23;;;;;;;0.82;0.82;;;14.90;99.90;;;;;;5045907;28;19921;-79
2021/09/13 02:06:49;;;;;;;1.13;1.02;;;14.80;99.90;;;;;;4978210;28;20034;-78
2021/09/13 02:09:16;;;;;;;0.65;0.65;;;14.80;99.90;;;;;;5010655;28;20038;-75
2021/09/13 02:11:41;;;;;;;2.45;1.40;;;14.90;99.90;;;;;;5015297;28;20053;-76
2021/09/13 02:14:07;;;;;;;4.68;0.93;;;14.90;99.90;;;;;;5014260;28;20065;-78
2021/09/13 02:16:33;;;;;;;1.38;0.80;;;14.90;99.90;;;;;;5008053;28;20046;-79
2021/09/13 02:18:59;;;;;;;;;;;14.90;99.90;;;;;;5012292;28;20120;-78
2021/09/13 02:21:24;;;;;;;0.80;0.77;;;14.90;99.90;;;;;;5013217;28;20018;-76
2021/09/13 02:23:50;;;;;;;6.03;0.73;;;14.90;99.90;;;;;;5013321;28;20066;-77
2021/09/13 02:26:16;;;;;;;3.88;0.88;;;14.80;99.90;;;;;;5012820;28;20516;-79
2021/09/13 02:28:41;;;;;;;;;;;14.80;99.90;;;;;;5012761;28;20056;-77
2021/09/13 02:31:07;;;;;;;1.13;0.80;;;14.70;99.90;;;;;;5012098;28;19960;-75
2021/09/13 02:33:33;;;;;;;;;;;14.60;99.90;;;;;;5012822;28;20471;-76
2021/09/13 02:35:58;;;;;;;4.45;1.30;;;14.50;99.90;;;;;;5012714;28;19940;-75
2021/09/13 02:38:24;;;;;;;3.53;0.68;;;14.40;99.90;;;;;;4997206;28;20045;-78
2021/09/13 02:40:50;;;;;;;;;;;14.40;99.90;;;;;;4997169;28;20132;-77
2021/09/13 02:43:16;;;;;;;2.15;0.95;;;14.30;99.90;;;;;;5012054;28;19917;-79
2021/09/13 02:45:41;;;;;;;2.45;0.82;;;14.20;99.90;;;;;;5013159;28;20061;-77
2021/09/13 02:48:07;;;;;;;7.38;1.85;;;14.20;99.90;;;;;;5011164;28;20037;-79
2021/09/13 02:50:33;;;;;;;3.17;1.27;;;14.10;99.90;;;;;;4996461;28;20042;-77
2021/09/13 02:52:58;;;;;;;1.48;1.05;;;14.10;99.90;;;;;;5012279;28;20048;-78
2021/09/13 02:55:25;;;;;;;0.98;0.60;;;14.00;99.90;;;;;;5012318;28;20049;-76
2021/09/13 02:57:51;;;;;;;2.33;1.83;;;14.00;99.90;;;;;;4995936;28;20042;-78
2021/09/13 03:00:17;;;;;;;2.22;1.27;;;13.90;99.90;;;;;;5012091;28;20048;-76
2021/09/13 03:02:43;;;;;;;1.17;0.95;;;13.90;99.90;;;;;;5012058;28;20058;-77
2021/09/13 03:05:10;;;;;;;0.60;0.60;;;13.90;99.90;;;;;;5011571;28;20049;-78
2021/09/13 03:07:36;;;;;;;2.30;0.75;;;13.90;99.90;;;;;;4996188;28;20045;-75
2021/09/13 03:10:03;;;;;;;1.55;0.68;;;13.90;99.90;;;;;;5011680;28;20050;-76
2021/09/13 03:12:33;;;;;;;0.68;0.68;;;13.80;99.90;;;;;;5011809;28;20049;-79
2021/09/13 03:15:03;;;;;;;1.52;1.42;;;13.80;99.90;;;;;;5014984;28;20435;-79
2021/09/13 03:17:28;;;;;;;0.85;0.68;;;13.60;99.90;;;;;;5017345;28;20049;-79
2021/09/13 03:19:54;;;;;;;1.10;0.80;;;13.70;99.90;;;;;;4996272;28;20041;-77
2021/09/13 03:22:20;;;;;;;2.53;1.27;;;13.60;99.90;;;;;;5011791;28;20053;-79
2021/09/13 03:24:45;;;;;;;0.85;0.73;;;13.60;99.90;;;;;;4996207;28;20100;-79
2021/09/13 03:27:11;;;;;;;2.38;0.73;;;13.60;99.90;;;;;;4994972;28;20038;-79
2021/09/13 03:29:37;;;;;;;2.60;1.58;;;13.50;99.90;;;;;;4996268;28;20038;-80
2021/09/13 03:32:03;;;;;;;0.50;0.50;;;13.50;99.90;;;;;;4993785;28;20085;-79
2021/09/13 03:34:28;;;;;;;2.55;1.20;;;13.50;99.90;;;;;;5012097;28;20050;-79
2021/09/13 03:36:55;;;;;;;1.38;1.05;;;13.50;99.90;;;;;;5011971;28;20046;-77
2021/09/13 03:39:21;;;;;;;0.88;0.88;;;13.50;99.90;;;;;;5011559;28;20041;-77
2021/09/13 03:41:47;;;;;;;1.45;1.00;;;13.50;99.90;;;;;;4979166;28;20168;-80
2021/09/13 03:44:12;;;;;;;7.20;1.15;;;13.40;99.90;;;;;;4995452;28;20484;-79
2021/09/13 03:46:38;;;;;;;1.58;0.88;;;13.40;99.90;;;;;;4977541;28;20537;-77
2021/09/13 03:49:04;;;;;;;1.27;1.17;;;13.30;99.90;;;;;;5010297;28;20586;-77
2021/09/13 03:51:29;;;;;;;0.68;0.63;;;13.20;99.90;;;;;;4995087;28;20038;-76
2021/09/13 03:53:55;;;;;;;2.65;1.60;;;13.10;99.90;;;;;;4995665;28;20052;-76
2021/09/13 03:56:21;;;;;;;5.32;1.58;;;13.10;99.90;;;;;;5010498;28;20357;-78
2021/09/13 03:58:47;;;;;;;;;;;13.00;99.90;;;;;;4992256;28;20050;-77
2021/09/13 04:01:12;;;;;;;1.92;1.17;;;13.00;99.90;;;;;;5041931;28;19921;-78
2021/09/13 04:03:46;;;;;;;0.70;0.70;;;12.90;99.90;;;;;;4994306;28;20053;-76
2021/09/13 04:06:49;;;;;;;3.25;1.42;;;12.80;99.90;;;;;;5011208;28;20042;-76
2021/09/13 04:14:16;;;;;;;0.82;0.60;;;12.70;99.90;;;;;;5030008;28;20391;-80
2021/09/13 04:16:42;;;;;;;1.45;0.93;;;12.60;99.90;;;;;;4997721;28;20037;-79
2021/09/13 04:19:09;;;;;;;9.52;1.65;;;12.50;99.90;;;;;;5009341;28;20041;-78
2021/09/13 04:21:36;;;;;;;1.35;0.88;;;12.50;99.90;;;;;;4994153;28;20042;-79
2021/09/13 04:24:02;;;;;;;0.63;0.52;;;12.40;99.90;;;;;;5011098;28;20077;-80
2021/09/13 04:26:27;;;;;;;0.65;0.65;;;12.40;99.90;;;;;;5010901;28;20072;-78
2021/09/13 04:28:53;;;;;;;5.50;1.75;;;12.30;99.90;;;;;;4994351;28;20076;-79
2021/09/13 04:31:19;;;;;;;1.00;0.63;;;12.30;99.90;;;;;;4991965;28;20062;-78
2021/09/13 04:33:45;;;;;;;1.27;0.90;;;12.20;99.90;;;;;;4993742;28;20053;-78
2021/09/13 04:36:10;;;;;;;0.70;0.70;;;12.30;99.90;;;;;;5010765;28;20472;-79
2021/09/13 04:38:36;;;;;;;0.85;0.75;;;12.20;99.90;;;;;;5010577;28;20049;-81
2021/09/13 04:41:02;;;;;;;0.88;0.88;;;12.20;99.90;;;;;;4993257;28;20046;-78
2021/09/13 04:43:28;;;;;;;2.65;0.95;;;12.10;99.90;;;;;;4991612;28;20042;-79
2021/09/13 04:45:53;;;;;;;1.70;0.85;;;12.10;99.90;;;;;;4994117;28;20146;-78
2021/09/13 04:48:19;;;;;;;0.50;0.50;;;12.10;99.90;;;;;;5009202;28;20041;-79
2021/09/13 04:50:45;;;;;;;0.88;0.85;;;12.00;99.90;;;;;;5010382;28;20095;-80
2021/09/13 04:53:10;;;;;;;0.75;0.63;;;12.00;99.90;;;;;;5009824;28;20480;-77
2021/09/13 04:55:36;;;;;;;2.28;1.10;;;12.00;99.90;;;;;;4992467;28;20045;-78
2021/09/13 04:58:03;;;;;;;0.60;0.60;;;12.00;99.90;;;;;;5010744;28;20127;-77
2021/09/13 05:00:29;;;;;;;1.27;0.98;;;12.00;99.90;;;;;;4993443;28;20054;-77
2021/09/13 05:02:55;;;;;;;0.68;0.68;;;12.00;99.90;;;;;;5009245;28;20133;-76
2021/09/13 05:05:20;;;;;;;0.80;0.70;;;11.90;99.90;;;;;;5009767;28;20121;-77
2021/09/13 05:07:46;;;;;;;0.80;0.80;;;11.90;99.90;;;;;;5010153;28;20096;-76
2021/09/13 05:10:12;;;;;;;0.80;0.80;;;11.80;99.90;;;;;;5009826;28;20053;-78
2021/09/13 05:12:38;;;;;;;2.83;1.52;;;11.80;99.90;;;;;;5010416;28;20065;-79
2021/09/13 05:15:04;;;;;;;1.67;1.23;;;11.80;99.90;;;;;;4993934;28;20112;-78
2021/09/13 05:17:30;;;;;;;0.93;0.93;;;11.80;99.90;;;;;;4992579;28;20448;-78
2021/09/13 05:19:56;;;;;;;1.10;1.00;;;11.80;99.90;;;;;;5010379;28;20049;-77
2021/09/13 05:22:22;;;;;;;1.15;1.05;;;11.80;99.90;;;;;;5010657;28;20064;-77
2021/09/13 05:24:48;;;;;;;;;;;11.80;99.90;;;;;;5010875;28;20053;-76
2021/09/13 05:27:14;;;;;;;2.40;1.15;;;11.70;99.90;;;;;;5012524;28;20267;-78
2021/09/13 05:29:39;;;;;;;3.28;1.92;;;11.70;99.90;;;;;;5010758;28;20113;-78
2021/09/13 05:32:06;;;;;;;0.75;0.75;;;11.70;99.90;;;;;;5009287;28;20722;-77
2021/09/13 05:34:32;;;;;;;1.77;1.23;;;11.70;99.90;;;;;;4993086;28;20076;-77
2021/09/13 05:36:57;;;;;;;1.23;1.13;;;11.70;99.90;;;;;;5010992;28;20041;-76
2021/09/13 05:39:23;;;;;;;1.48;1.17;;;11.70;99.90;;;;;;5003097;28;20046;-78
2021/09/13 05:41:49;;;;;;;1.67;0.90;;;11.80;99.90;;;;;;4993191;28;20066;-77
2021/09/13 05:44:15;;;;;;;3.10;1.85;;;11.80;99.90;;;;;;4991228;28;20451;-76
2021/09/13 05:46:41;;;;;;;1.13;1.00;;;11.80;99.90;;;;;;5010517;28;20127;-77
2021/09/13 05:49:10;;;;;;;2.67;1.38;;;11.90;99.90;;;;;;5009500;28;20085;-79
2021/09/13 05:51:42;;;;;;;1.90;1.58;;;11.90;99.90;;;;;;4994724;28;20045;-79
2021/09/13 05:54:09;;;;;;;2.17;1.10;;;12.00;99.90;;;;;;5042587;28;20406;-77
2021/09/13 05:56:35;;;;;;;2.17;1.70;;;12.00;99.90;;;;;;5010669;28;20042;-79
2021/09/13 05:59:00;;;;;;;2.10;1.33;;;12.10;99.90;;;;;;5010400;28;20099;-77
2021/09/13 06:01:26;;;;;;;8.48;1.58;;;12.20;99.90;;;;;;4993310;28;20042;-77
2021/09/13 06:03:52;;;;;;;3.40;1.27;;;12.30;99.90;;;;;;5008658;28;20471;-78
2021/09/13 06:06:18;;;;;;;2.38;1.48;;;12.40;99.90;;;;;;5009591;28;20038;-78
2021/09/13 06:08:43;;;;;;;;;;;12.50;99.90;;;;;;5011284;28;20104;-76
2021/09/13 06:11:09;;;;;;;1.10;1.05;;;12.60;99.90;;;;;;5003873;28;20381;-77
2021/09/13 06:13:35;;;;;;;1.10;1.00;;;12.70;99.90;;;;;;5014761;28;20116;-76
2021/09/13 06:16:01;;;;;;;1.27;0.93;;;12.80;99.90;;;;;;5016374;28;20037;-76
2021/09/13 06:18:26;;;;;;;3.95;0.73;;;12.80;99.90;;;;;;5006928;28;20069;-81
2021/09/13 06:20:52;;;;;;;1.65;1.23;;;12.90;99.90;;;;;;5011953;28;20198;-79
2021/09/13 06:23:18;;;;;;;1.08;1.00;;;13.00;99.90;;;;;;5007387;28;20050;-77
2021/09/13 06:25:44;;;;;;;4.07;1.35;;;13.20;99.90;;;;;;4989296;28;20058;-77
2021/09/13 06:28:10;;;;;;;5.15;1.27;;;13.30;99.90;;;;;;5006835;28;20150;-79
2021/09/13 06:30:36;;;;;;;5.68;1.17;;;13.40;99.90;;;;;;5009558;28;20060;-76
2021/09/13 06:33:01;;;;;;;2.00;1.45;;;13.70;99.90;;;;;;5007959;28;20054;-79
2021/09/13 06:35:27;;;;;;;2.05;1.77;;;13.80;99.90;;;;;;5007858;28;20041;-78
2021/09/13 06:37:53;;;;;;;1.67;0.82;;;14.00;99.90;;;;;;5011819;28;20112;-79
2021/09/13 06:40:18;;;;;;;;;;;14.30;99.90;;;;;;5011465;28;20779;-78
2021/09/13 06:42:44;;;;;;;1.00;0.85;;;14.40;99.90;;;;;;5043543;28;19971;-80
2021/09/13 06:45:17;;;;;;;1.38;1.15;;;14.50;99.90;;;;;;4978694;28;20116;-79
2021/09/13 06:47:45;;;;;;;1.60;1.50;;;14.70;99.90;;;;;;4994239;28;20041;-80
2021/09/13 06:50:27;;;;;;;1.83;1.20;;;14.90;99.90;;;;;;5022858;28;20760;-80
2021/09/13 06:52:55;;;;;;;2.22;1.02;;;15.00;99.90;;;;;;5007319;28;20058;-81
2021/09/13 06:55:21;;;;;;;0.57;0.57;;;15.20;99.90;;;;;;5015099;28;20068;-78
2021/09/13 06:57:49;;;;;;;1.98;1.10;;;15.30;99.90;;;;;;5008807;28;20368;-80
2021/09/13 07:00:17;;;;;;;1.80;1.17;;;15.40;99.90;;;;;;4993649;28;20042;-81
2021/09/13 07:02:45;;;;;;;1.20;1.10;;;15.50;99.90;;;;;;5010105;28;20049;-80
2021/09/13 07:05:11;;;;;;;1.08;0.98;;;15.60;99.90;;;;;;5008133;28;20038;-81
2021/09/13 07:07:38;;;;;;;1.65;1.30;;;15.70;99.90;;;;;;4978726;28;20476;-81
2021/09/13 07:10:05;;;;;;;0.77;0.75;;;15.70;99.90;;;;;;5009683;28;20117;-81
2021/09/13 07:12:31;;;;;;;1.95;1.15;;;15.70;99.90;;;;;;4980184;28;20447;-78
2021/09/13 07:14:57;;;;;;;;;;;15.80;99.90;;;;;;4996262;28;20049;-80
2021/09/13 07:17:23;;;;;;;6.15;1.02;;;15.80;99.90;;;;;;5042921;28;19925;-82
2021/09/13 07:19:51;;;;;;;;;;;15.90;99.90;;;;;;5038612;28;20092;-81
2021/09/13 07:22:16;;;;;;;0.50;0.50;;;16.00;99.90;;;;;;5013378;28;20429;-83
2021/09/13 07:24:43;;;;;;;1.77;1.35;;;16.00;99.90;;;;;;4988432;28;20050;-79
2021/09/13 07:27:10;;;;;;;1.75;0.98;;;16.10;99.90;;;;;;5000137;28;20039;-81
2021/09/13 07:29:36;;;;;;;3.50;1.10;;;16.20;99.90;;;;;;5011911;28;20049;-80
2021/09/13 07:32:02;;;;;;;0.88;0.82;;;16.30;99.90;;;;;;5014210;28;20054;-78
2021/09/13 07:34:29;;;;;;;1.58;0.82;;;16.40;99.90;;;;;;5009498;28;20148;-83
2021/09/13 07:36:55;;;;;;;1.70;1.38;;;16.50;99.90;;;;;;4993323;28;20042;-82
2021/09/13 07:39:26;;;;;;;4.88;0.80;;;16.60;99.90;;;;;;5009833;28;20502;-81
2021/09/13 07:41:58;;;;;;;1.48;1.00;;;16.70;99.90;;;;;;4999665;28;20057;-82
2021/09/13 07:44:25;;;;;;;2.38;1.10;;;16.90;99.90;;;;;;5005329;28;20604;-76
2021/09/13 07:46:52;;;;;;;0.95;0.60;;;17.10;99.90;;;;;;5010195;28;20088;-80
2021/09/13 07:49:18;;;;;;;0.55;0.55;;;17.30;99.90;;;;;;5010607;28;20046;-80
2021/09/13 07:51:44;;;;;;;1.25;1.15;;;17.40;99.90;;;;;;4993037;28;20093;-78
2021/09/13 07:54:11;;;;;;;;;;;17.50;99.90;;;;;;5010490;28;20084;-79
2021/09/13 07:56:36;;;;;;;0.45;0.43;;;17.50;99.90;;;;;;5042742;28;19929;-83
2021/09/13 07:59:03;;;;;;;;;;;17.70;99.90;;;;;;5013575;28;20041;-82
2021/09/13 08:01:30;;;;;;;1.55;0.70;;;17.80;99.90;;;;;;5045145;28;19980;-86
2021/09/13 08:03:56;;;;;;;6.47;0.70;;;17.90;99.90;;;;;;5010431;28;20049;-81
2021/09/13 08:06:22;;;;;;;2.35;0.80;;;18.00;99.90;;;;;;5013013;28;20128;-80
2021/09/13 08:08:48;;;;;;;;;;;18.10;99.90;;;;;;5014668;28;20069;-73
2021/09/13 08:11:13;;;;;;;1.00;0.70;;;18.10;99.90;;;;;;5011862;28;20028;-81
2021/09/13 08:13:40;;;;;;;;;;;18.10;99.90;;;;;;5012912;28;20042;-78
2021/09/13 08:16:07;;;;;;;0.47;0.47;;;18.10;99.90;;;;;;5006571;28;19928;-80
2021/09/13 08:18:33;;;;;;;1.33;0.77;;;18.10;99.90;;;;;;4975944;28;20157;-86
2021/09/13 08:20:59;;;;;;;;;;;18.00;99.90;;;;;;5004427;28;20085;-81
2021/09/13 08:23:25;;;;;;;1.38;0.93;;;17.90;99.90;;;;;;4996759;28;19948;-81
2021/09/13 08:25:50;;;;;;;;;;;17.90;99.90;;;;;;4997683;28;20050;-80
2021/09/13 08:28:20;;;;;;;0.73;0.50;;;17.90;99.90;;;;;;5009520;28;19961;-77
2021/09/13 08:30:47;;;;;;;0.55;0.55;;;17.90;99.90;;;;;;5008958;28;20077;-82
2021/09/13 08:33:13;;;;;;;0.40;0.40;;;17.90;99.90;;;;;;5009536;28;20663;-82
2021/09/13 08:35:39;;;;;;;;;;;17.80;99.90;;;;;;5000383;28;20106;-81
2021/09/13 08:38:05;;;;;;;0.80;0.80;;;17.80;99.90;;;;;;4997499;28;19921;-80
2021/09/13 08:40:30;;;;;;;;;;;17.80;99.90;;;;;;4997545;28;20046;-81
2021/09/13 08:42:58;;;;;;;1.17;0.80;;;17.80;99.90;;;;;;4993093;28;19963;-81
2021/09/13 08:45:40;;;;;;;0.43;0.43;;;17.80;99.90;;;;;;4993528;28;20064;-80
2021/09/13 08:51:29;;;;;;;1.73;0.75;;;17.60;99.90;;;;;;5010661;28;20046;-78
2021/09/13 08:53:35;;;;;;;1.13;0.68;;;17.40;99.90;;;;;;5001597;28;20050;-80
2021/09/13 08:56:02;;;;;;;0.77;0.60;;;17.20;99.90;;;;;;5008939;28;20128;-79
2021/09/13 08:58:32;;;;;;;0.52;0.52;;;17.00;99.90;;;;;;4991469;28;20049;-79
2021/09/13 09:00:58;;;;;;;0.40;0.40;;;16.90;99.90;;;;;;5010189;28;20044;-79
2021/09/13 09:03:25;;;;;;;0.68;0.68;;;16.80;99.90;;;;;;5007566;28;20450;-81
2021/09/13 09:05:53;;;;;;;0.57;0.57;;;16.80;99.90;;;;;;5009808;28;20053;-79
2021/09/13 09:08:30;;;;;;;0.50;0.50;;;16.70;99.90;;;;;;5007503;28;20077;-81
2021/09/13 09:11:06;;;;;;;0.32;0.32;;;16.70;99.90;;;;;;5010721;28;20041;-81
2021/09/13 09:13:43;;;;;;;0.40;0.40;;;16.70;99.90;;;;;;5007755;28;20044;-78
2021/09/13 09:16:13;;;;;;;1.08;0.80;;;16.70;99.90;;;;;;5018313;28;20049;-79
2021/09/13 09:18:42;;;;;;;0.60;0.60;;;16.70;99.90;;;;;;5009073;28;20065;-81
2021/09/13 09:21:24;;;;;;;0.80;0.63;;;16.70;99.90;;;;;;4996612;28;20050;-80
2021/09/13 09:24:01;;;;;;;0.40;0.40;;;16.80;99.90;;;;;;5005883;28;20042;-81
2021/09/13 09:26:27;;;;;;;;;;;16.80;99.90;;;;;;5010070;28;20526;-83
2021/09/13 09:28:56;;;;;;;0.60;0.60;;;16.90;99.90;;;;;;5017641;28;19925;-81
2021/09/13 09:31:41;;;;;;;2.15;0.80;;;17.00;99.90;;;;;;5002626;28;20072;-81
2021/09/13 09:34:16;;;;;;;1.10;0.60;;;17.00;99.90;;;;;;4991041;28;20049;-80
2021/09/13 09:36:42;;;;;;;5.13;0.45;;;17.10;99.90;;;;;;5006939;28;20069;-79
2021/09/13 09:39:12;;;;;;;0.40;0.40;;;17.20;99.90;;;;;;5010347;28;20053;-80
2021/09/13 09:41:44;;;;;;;0.40;0.40;;;17.30;99.90;;;;;;4992405;28;20056;-81
2021/09/13 09:44:21;;;;;;;0.75;0.57;;;17.40;99.90;;;;;;5008655;28;20057;-83
2021/09/13 09:46:55;;;;;;;0.98;0.60;;;17.50;99.90;;;;;;4993809;28;20149;-82
2021/09/13 09:49:22;;;;;;;0.55;0.55;;;17.70;99.90;;;;;;5011300;28;20050;-82
2021/09/13 09:51:56;;;;;;;0.50;0.50;;;17.90;99.90;;;;;;5007463;28;20789;-78
2021/09/13 09:54:29;;;;;;;0.50;0.50;;;18.00;99.90;;;;;;5007704;28;20113;-79
2021/09/13 09:57:00;;;;;;;0.50;0.50;;;18.20;99.90;;;;;;5009385;28;20137;-80
2021/09/13 09:59:33;;;;;;;0.63;0.63;;;18.40;99.90;;;;;;4991877;28;20069;-84
2021/09/13 10:01:59;;;;;;;0.50;0.50;;;18.50;99.90;;;;;;4994496;28;20054;-85
2021/09/13 10:04:27;;;;;;;0.60;0.60;;;18.60;99.90;;;;;;5012574;28;20046;-78
2021/09/13 10:07:00;;;;;;;0.40;0.40;;;18.70;99.90;;;;;;5014400;28;20046;-82
2021/09/13 10:09:28;;;;;;;1.30;0.68;;;18.80;99.90;;;;;;5013913;28;20136;-79
2021/09/13 10:12:00;;;;;;;2.05;0.60;;;18.90;99.90;;;;;;5011340;28;20034;-78
2021/09/13 10:14:29;;;;;;;0.40;0.40;;;19.00;99.90;;;;;;5005664;28;20046;-77
2021/09/13 10:16:55;;;;;;;0.98;0.50;;;19.20;99.90;;;;;;5019807;28;20068;-78
2021/09/13 10:19:23;;;;;;;0.47;0.40;;;19.30;99.90;;;;;;5014283;28;20077;-79
2021/09/13 10:21:50;;;;;;;4.90;0.98;;;19.40;99.90;;;;;;4978143;28;20406;-78
2021/09/13 10:24:18;;;;;;;0.50;0.50;;;19.50;99.90;;;;;;4994101;28;20129;-77
2021/09/13 10:26:58;;;;;;;0.45;0.45;;;19.70;99.90;;;;;;5010066;28;20041;-79
2021/09/13 10:29:29;;;;;;;1.52;0.70;;;19.80;99.90;;;;;;5042634;28;20048;-78
2021/09/13 10:32:03;;;;;;;0.50;0.50;;;19.80;99.90;;;;;;5024892;28;20137;-79
2021/09/13 10:34:40;;;;;;;0.50;0.50;;;19.80;99.90;;;;;;4992131;28;20058;-78
2021/09/13 10:37:14;;;;;;;0.40;0.40;;;19.80;99.90;;;;;;5007353;28;20044;-78
2021/09/13 10:40:05;;;;;;;0.30;0.30;;;19.80;99.90;;;;;;5007195;28;20046;-79
2021/09/13 10:42:47;;;;;;;0.28;0.28;;;20.20;99.90;;;;;;4995959;28;20045;-84
2021/09/13 10:45:15;;;;;;;0.40;0.40;;;20.50;99.90;;;;;;5011084;28;20132;-80
2021/09/13 10:47:48;;;;;;;0.43;0.43;;;20.70;99.90;;;;;;5010828;28;20037;-81
2021/09/13 10:50:16;;;;;;;0.40;0.40;;;20.80;99.90;;;;;;5010312;28;20052;-82
2021/09/13 10:52:43;;;;;;;0.60;0.60;;;20.80;99.90;;;;;;5003152;28;20038;-81
2021/09/13 10:55:18;;;;;;;0.60;0.52;;;20.70;99.90;;;;;;5026643;28;20042;-82
2021/09/13 10:57:55;;;;;;;0.63;0.60;;;20.50;99.90;;;;;;5009433;28;20124;-78
2021/09/13 11:00:39;;;;;;;0.30;0.30;;;20.40;99.90;;;;;;5009761;28;20046;-81
2021/09/13 11:06:16;;;;;;;1.17;0.82;;;20.20;99.90;;;;;;5008283;28;20046;-84
2021/09/13 11:09:01;;;;;;;0.40;0.40;;;20.20;99.90;;;;;;5007548;28;20100;-78
2021/09/13 11:11:33;;;;;;;3.03;0.55;;;20.20;99.90;;;;;;5010085;28;20049;-79
2021/09/13 11:14:19;;;;;;;0.30;0.30;;;20.30;99.90;;;;;;5011560;28;20057;-82
2021/09/13 11:16:53;;;;;;;1.13;0.73;;;20.30;99.90;;;;;;5018510;28;20041;-81
2021/09/13 11:19:21;;;;;;;0.50;0.50;;;20.10;99.90;;;;;;5013793;28;20156;-82
2021/09/13 11:22:18;;;;;;;0.93;0.82;;;20.10;99.90;;;;;;5010115;28;20085;-79
2021/09/13 11:24:43;;;;;;;0.50;0.47;;;20.10;99.90;;;;;;5012240;28;20062;-82
2021/09/13 11:27:13;;;;;;;0.38;0.38;;;20.20;99.90;;;;;;5011663;28;20049;-77
2021/09/13 11:29:46;;;;;;;0.30;0.30;;;20.30;99.90;;;;;;5012330;28;20389;-79
2021/09/13 11:32:17;;;;;;;0.35;0.35;;;20.30;99.90;;;;;;4985054;28;20384;-81
2021/09/13 11:34:44;;;;;;;0.60;0.60;;;20.10;99.90;;;;;;5011494;28;20496;-80
2021/09/13 11:37:14;;;;;;;0.60;0.60;;;20.00;99.90;;;;;;5009661;28;20042;-77
2021/09/13 11:39:47;;;;;;;0.52;0.52;;;19.90;99.90;;;;;;5010139;28;20037;-81
2021/09/13 11:42:17;;;;;;;0.75;0.55;;;19.90;99.90;;;;;;4978676;28;20037;-78
2021/09/13 11:44:50;;;;;;;0.55;0.50;;;19.90;99.90;;;;;;5009000;28;20136;-82
2021/09/13 11:47:18;;;;;;;0.50;0.50;;;19.80;99.90;;;;;;5040194;28;20045;-81
2021/09/13 11:49:47;;;;;;;0.30;0.30;;;19.80;99.90;;;;;;5008073;28;20125;-79
2021/09/13 11:52:27;;;;;;;0.50;0.50;;;19.80;99.90;;;;;;5009052;28;20030;-79
2021/09/13 11:55:01;;;;;;;0.50;0.50;;;19.80;99.90;;;;;;5008684;28;20049;-79
2021/09/13 11:57:39;;;;;;;0.40;0.40;;;19.80;99.90;;;;;;5008792;28;20361;-79
2021/09/13 12:00:23;;;;;;;0.82;0.77;;;20.10;99.90;;;;;;5008147;28;20049;-79
2021/09/13 12:03:00;;;;;;;0.98;0.47;;;20.40;99.90;;;;;;4986520;28;20050;-80
2021/09/13 12:05:28;;;;;;;;;;;20.60;99.90;;;;;;4994984;28;20046;-82
2021/09/13 12:07:56;;;;;;;0.50;0.45;;;20.80;99.90;;;;;;5008657;28;19968;-81
2021/09/13 12:10:23;;;;;;;3.10;0.65;;;20.80;99.90;;;;;;4993372;28;20046;-79
2021/09/13 12:12:51;;;;;;;0.60;0.60;;;20.70;99.90;;;;;;5008162;28;20042;-79
2021/09/13 12:15:18;;;;;;;1.38;0.45;;;20.50;99.90;;;;;;5030807;28;20566;-78
2021/09/13 12:17:49;;;;;;;1.10;0.60;;;20.30;99.90;;;;;;5003511;28;20038;-79
2021/09/13 12:20:16;;;;;;;0.73;0.47;;;20.10;99.90;;;;;;5040470;28;20123;-79
2021/09/13 12:22:44;;;;;;;0.52;0.52;;;20.00;99.90;;;;;;5008747;28;20049;-79
2021/09/13 12:25:16;;;;;;;0.35;0.35;;;19.90;99.90;;;;;;5002464;28;20759;-83
2021/09/13 12:27:48;;;;;;;0.80;0.63;;;19.90;99.90;;;;;;4997249;28;20038;-80
2021/09/13 12:30:21;;;;;;;0.90;0.30;;;19.80;99.90;;;;;;5008595;28;20046;-83
2021/09/13 12:32:55;;;;;;;0.93;0.63;;;19.80;99.90;;;;;;5002658;28;20154;-80
2021/09/13 12:35:43;;;;;;;0.60;0.57;;;19.80;99.90;;;;;;5004700;28;20477;-79
2021/09/13 12:38:12;;;;;;;0.50;0.50;;;19.90;99.90;;;;;;5005657;28;20054;-79
2021/09/13 12:40:55;;;;;;;0.50;0.50;;;19.90;99.90;;;;;;5009926;28;20053;-83
2021/09/13 12:43:30;;;;;;;5.03;0.65;;;20.00;99.90;;;;;;5008542;28;20068;-78
2021/09/13 12:46:08;;;;;;;2.42;0.55;;;20.00;99.90;;;;;;5013992;28;20038;-79
2021/09/13 12:48:38;;;;;;;2.85;0.70;;;20.10;99.90;;;;;;5013374;28;20044;-79
2021/09/13 12:51:05;;;;;;;0.65;0.60;;;20.40;99.90;;;;;;5008838;28;20052;-78
2021/09/13 12:53:31;;;;;;;0.75;0.70;;;20.70;99.90;;;;;;5008567;28;20046;-78
2021/09/13 12:55:59;;;;;;;0.57;0.57;;;20.90;99.90;;;;;;5002831;28;20057;-79
2021/09/13 12:58:29;;;;;;;0.47;0.47;;;20.90;99.90;;;;;;5008997;28;20034;-80
2021/09/13 13:00:57;;;;;;;0.55;0.55;;;20.80;99.90;;;;;;5007374;28;20411;-80
2021/09/13 13:03:23;;;;;;;0.45;0.40;;;20.70;99.90;;;;;;4990629;28;20050;-79
2021/09/13 13:05:53;;;;;;;1.00;0.60;;;20.50;99.90;;;;;;5007214;28;20045;-78
2021/09/13 13:08:22;;;;;;;1.38;0.82;;;20.30;99.90;;;;;;5008167;28;20096;-81
2021/09/13 13:10:48;;;;;;;0.38;0.38;;;20.10;99.90;;;;;;5008502;28;20100;-80